createdAt,value
2023-02-03T00:03:59.565Z,-1.34
2023-02-03T00:05:01.651Z,-1.34
2023-02-03T00:06:04.670Z,-1.34
2023-02-03T00:07:06.665Z,-1.34
2023-02-03T00:08:09.980Z,-1.32
2023-02-03T00:09:12.392Z,-1.31
2023-02-03T00:10:14.949Z,-1.31
2023-02-03T00:11:16.938Z,-1.30
2023-02-03T00:12:18.850Z,-1.29
2023-02-03T00:13:21.560Z,-1.29
2023-02-03T00:14:23.296Z,-1.28
2023-02-03T00:15:25.366Z,-1.27
2023-02-03T00:16:27.386Z,-1.29
2023-02-03T00:17:29.384Z,-1.29
2023-02-03T00:18:31.260Z,-1.29
2023-02-03T00:19:33.137Z,-1.29
2023-02-03T00:20:35.017Z,-1.30
2023-02-03T00:21:36.886Z,-1.30
2023-02-03T00:22:38.736Z,-1.29
2023-02-03T00:23:41.793Z,-1.29
2023-02-03T00:24:43.584Z,-1.29
2023-02-03T00:25:45.493Z,-1.29
2023-02-03T00:26:47.232Z,-1.29
2023-02-03T00:27:49.046Z,-1.29
2023-02-03T00:28:50.801Z,-1.30
2023-02-03T00:29:52.616Z,-1.31
2023-02-03T00:30:54.425Z,-1.34
2023-02-03T00:31:56.716Z,-1.35
2023-02-03T00:32:58.949Z,-1.36
2023-02-03T00:34:00.847Z,-1.36
2023-02-03T00:35:02.936Z,-1.37
2023-02-03T00:36:06.195Z,-1.37
2023-02-03T00:37:08.009Z,-1.36
2023-02-03T00:38:09.849Z,-1.33
2023-02-03T00:39:12.450Z,-1.31
2023-02-03T00:40:14.572Z,-1.31
2023-02-03T00:41:18.170Z,-1.31
2023-02-03T00:42:20.017Z,-1.32
2023-02-03T00:43:21.897Z,-1.32
2023-02-03T00:44:23.836Z,-1.33
2023-02-03T00:45:26.351Z,-1.34
2023-02-03T00:46:28.224Z,-1.36
2023-02-03T00:47:30.186Z,-1.37
2023-02-03T00:48:32.215Z,-1.38
2023-02-03T00:49:34.137Z,-1.38
2023-02-03T00:50:35.927Z,-1.38
2023-02-03T00:51:37.718Z,-1.37
2023-02-03T00:52:39.659Z,-1.37
2023-02-03T00:53:41.462Z,-1.37
2023-02-03T00:54:43.436Z,-1.36
2023-02-03T00:55:45.296Z,-1.36
2023-02-03T00:56:46.984Z,-1.37
2023-02-03T00:57:48.871Z,-1.37
2023-02-03T00:58:50.852Z,-1.37
2023-02-03T00:59:52.754Z,-1.39
2023-02-03T01:00:57.353Z,-1.42
2023-02-03T01:02:00.847Z,-1.43
2023-02-03T01:03:03.420Z,-1.43
2023-02-03T01:04:05.483Z,-1.44
2023-02-03T01:05:09.122Z,-1.44
2023-02-03T01:06:15.444Z,-1.44
2023-02-03T01:07:17.592Z,-1.43
2023-02-03T01:08:20.078Z,-1.43
2023-02-03T01:09:22.009Z,-1.41
2023-02-03T01:10:24.099Z,-1.40
2023-02-03T01:11:27.900Z,-1.40
2023-02-03T01:12:31.167Z,-1.39
2023-02-03T01:13:33.692Z,-1.37
2023-02-03T01:14:35.546Z,-1.37
2023-02-03T01:15:47.442Z,-1.37
2023-02-03T01:16:49.398Z,-1.37
2023-02-03T01:17:52.259Z,-1.36
2023-02-03T01:18:55.656Z,-1.35
2023-02-03T01:19:57.480Z,-1.34
2023-02-03T01:21:06.368Z,-1.33
2023-02-03T01:22:08.330Z,-1.32
2023-02-03T01:23:10.228Z,-1.32
2023-02-03T01:24:12.284Z,-1.32
2023-02-03T01:25:14.178Z,-1.30
2023-02-03T01:26:19.504Z,-1.31
2023-02-03T01:27:22.767Z,-1.30
2023-02-03T01:28:24.569Z,-1.30
2023-02-03T01:29:27.748Z,-1.30
2023-02-03T01:30:30.401Z,-1.33
2023-02-03T01:31:39.913Z,-1.34
2023-02-03T01:32:42.283Z,-1.35
2023-02-03T01:33:48.819Z,-1.37
2023-02-03T01:34:50.747Z,-1.39
2023-02-03T01:35:52.662Z,-1.39
2023-02-03T01:36:54.624Z,-1.38
2023-02-03T01:37:57.461Z,-1.38
2023-02-03T01:38:59.348Z,-1.36
2023-02-03T01:40:01.330Z,-1.35
2023-02-03T01:41:04.349Z,-1.33
2023-02-03T01:42:06.182Z,-1.31
2023-02-03T01:43:10.091Z,-1.30
2023-02-03T01:44:33.688Z,-1.29
2023-02-03T01:45:35.468Z,-1.27
2023-02-03T01:46:44.657Z,-1.26
2023-02-03T01:47:48.227Z,-1.25
2023-02-03T01:48:51.731Z,-1.24
2023-02-03T01:50:27.684Z,-1.24
2023-02-03T01:51:30.616Z,-1.23
2023-02-03T01:52:33.337Z,-1.23
2023-02-03T01:53:35.305Z,-1.22
2023-02-03T01:54:44.052Z,-1.21
2023-02-03T01:55:50.324Z,-1.18
2023-02-03T01:57:00.989Z,-1.17
2023-02-03T01:58:12.997Z,-1.16
2023-02-03T01:59:19.729Z,-1.15
2023-02-03T02:00:22.155Z,-1.12
2023-02-03T02:01:24.131Z,-1.12
2023-02-03T02:02:26.761Z,-1.11
2023-02-03T02:03:38.248Z,-1.10
2023-02-03T02:05:01.881Z,-1.09
2023-02-03T02:06:10.617Z,-1.11
2023-02-03T02:07:16.511Z,-1.11
2023-02-03T02:08:22.423Z,-1.12
2023-02-03T02:09:26.753Z,-1.11
2023-02-03T02:10:33.557Z,-1.12
2023-02-03T02:11:35.465Z,-1.12
2023-02-03T02:12:37.693Z,-1.12
2023-02-03T02:13:43.030Z,-1.13
2023-02-03T02:14:47.699Z,-1.12
2023-02-03T02:16:17.914Z,-1.14
2023-02-03T02:17:42.699Z,-1.17
2023-02-03T02:19:36.226Z,-1.18
2023-02-03T02:21:00.095Z,-1.18
2023-02-03T02:22:20.850Z,-1.18
2023-02-03T02:23:37.199Z,-1.18
2023-02-03T02:24:55.150Z,-1.18
2023-02-03T02:26:09.292Z,-1.19
2023-02-03T02:27:35.416Z,-1.20
2023-02-03T02:29:20.241Z,-1.19
2023-02-03T02:31:22.181Z,-1.21
2023-02-03T02:32:46.401Z,-1.21
2023-02-03T02:34:02.634Z,-1.21
2023-02-03T02:35:23.767Z,-1.23
2023-02-03T02:36:37.652Z,-1.22
2023-02-03T02:38:07.684Z,-1.25
2023-02-03T02:39:29.398Z,-1.27
2023-02-03T02:40:49.818Z,-1.29
2023-02-03T02:42:11.273Z,-1.32
2023-02-03T02:43:39.879Z,-1.36
2023-02-03T02:44:50.668Z,-1.36
2023-02-03T02:46:30.805Z,-1.36
2023-02-03T02:47:33.827Z,-1.35
2023-02-03T02:48:45.839Z,-1.36
2023-02-03T02:50:01.094Z,-1.37
2023-02-03T02:51:08.622Z,-1.37
2023-02-03T02:52:16.961Z,-1.38
2023-02-03T02:53:24.698Z,-1.38
2023-02-03T02:54:31.495Z,-1.38
2023-02-03T02:55:40.077Z,-1.37
2023-02-03T02:56:48.248Z,-1.37
2023-02-03T02:57:55.675Z,-1.36
2023-02-03T02:59:02.836Z,-1.36
2023-02-03T03:00:06.051Z,-1.38
2023-02-03T03:01:11.837Z,-1.39
2023-02-03T03:02:13.732Z,-1.41
2023-02-03T03:03:24.412Z,-1.41
2023-02-03T03:04:30.366Z,-1.42
2023-02-03T03:05:34.494Z,-1.41
2023-02-03T03:06:44.868Z,-1.42
2023-02-03T03:08:02.781Z,-1.42
2023-02-03T03:09:15.066Z,-1.42
2023-02-03T03:10:27.366Z,-1.45
2023-02-03T03:11:36.334Z,-1.47
2023-02-03T03:12:48.419Z,-1.48
2023-02-03T03:13:56.145Z,-1.50
2023-02-03T03:15:04.753Z,-1.51
2023-02-03T03:16:11.203Z,-1.52
2023-02-03T03:17:22.088Z,-1.55
2023-02-03T03:18:32.048Z,-1.58
2023-02-03T03:19:50.685Z,-1.61
2023-02-03T03:20:57.428Z,-1.64
2023-02-03T03:22:03.874Z,-1.66
2023-02-03T03:23:33.684Z,-1.66
2023-02-03T03:24:45.725Z,-1.67
2023-02-03T03:25:57.844Z,-1.70
2023-02-03T03:27:17.346Z,-1.71
2023-02-03T03:28:36.535Z,-1.72
2023-02-03T03:30:12.794Z,-1.73
2023-02-03T03:31:17.984Z,-1.73
2023-02-03T03:32:22.084Z,-1.74
2023-02-03T03:33:24.094Z,-1.76
2023-02-03T03:34:26.233Z,-1.79
2023-02-03T03:35:53.343Z,-1.79
2023-02-03T03:37:20.848Z,-1.79
2023-02-03T03:38:33.621Z,-1.78
2023-02-03T03:39:47.306Z,-1.77
2023-02-03T03:40:59.728Z,-1.79
2023-02-03T03:42:12.661Z,-1.79
2023-02-03T03:43:23.960Z,-1.79
2023-02-03T03:44:32.919Z,-1.80
2023-02-03T03:45:49.323Z,-1.80
2023-02-03T03:47:33.986Z,-1.83
2023-02-03T03:49:05.447Z,-1.86
2023-02-03T03:50:15.665Z,-1.88
2023-02-03T03:51:24.209Z,-1.90
2023-02-03T03:52:30.809Z,-1.90
2023-02-03T03:53:39.243Z,-1.91
2023-02-03T03:54:44.684Z,-1.90
2023-02-03T03:55:52.670Z,-1.91
2023-02-03T03:57:26.884Z,-1.91
2023-02-03T03:58:32.042Z,-1.92
2023-02-03T03:59:40.645Z,-1.93
2023-02-03T04:00:45.759Z,-1.93
2023-02-03T04:01:50.033Z,-1.94
2023-02-03T04:02:56.950Z,-1.96
2023-02-03T04:04:05.763Z,-1.98
2023-02-03T04:05:12.058Z,-2.00
2023-02-03T04:06:14.749Z,-2.01
2023-02-03T04:07:16.663Z,-2.02
2023-02-03T04:08:18.564Z,-2.02
2023-02-03T04:09:20.853Z,-2.04
2023-02-03T04:10:31.953Z,-2.03
2023-02-03T04:11:53.917Z,-2.03
2023-02-03T04:12:55.909Z,-2.02
2023-02-03T04:13:57.999Z,-2.01
2023-02-03T04:14:59.672Z,-2.02
2023-02-03T04:16:01.511Z,-2.01
2023-02-03T04:17:03.759Z,-2.01
2023-02-03T04:18:06.238Z,-2.00
2023-02-03T04:19:08.624Z,-2.01
2023-02-03T04:20:11.142Z,-2.02
2023-02-03T04:21:12.829Z,-2.02
2023-02-03T04:22:14.651Z,-2.02
2023-02-03T04:23:16.730Z,-2.02
2023-02-03T04:24:18.728Z,-2.03
2023-02-03T04:25:21.503Z,-2.03
2023-02-03T04:26:23.962Z,-2.04
2023-02-03T04:27:27.215Z,-2.02
2023-02-03T04:28:29.111Z,-2.03
2023-02-03T04:29:30.817Z,-2.01
2023-02-03T04:30:33.400Z,-1.99
2023-02-03T04:31:35.365Z,-1.97
2023-02-03T04:32:37.225Z,-1.96
2023-02-03T04:33:39.045Z,-1.96
2023-02-03T04:34:40.797Z,-1.97
2023-02-03T04:35:42.536Z,-1.98
2023-02-03T04:36:44.300Z,-2.00
2023-02-03T04:37:46.374Z,-2.01
2023-02-03T04:38:51.928Z,-2.03
2023-02-03T04:39:55.529Z,-2.03
2023-02-03T04:40:57.324Z,-2.03
2023-02-03T04:41:59.073Z,-2.04
2023-02-03T04:43:07.389Z,-2.04
2023-02-03T04:44:09.478Z,-2.04
2023-02-03T04:45:12.736Z,-2.04
2023-02-03T04:46:14.865Z,-2.05
2023-02-03T04:47:17.291Z,-2.08
2023-02-03T04:48:19.159Z,-2.10
2023-02-03T04:49:21.222Z,-2.14
2023-02-03T04:50:22.991Z,-2.16
2023-02-03T04:51:24.821Z,-2.17
2023-02-03T04:52:26.908Z,-2.19
2023-02-03T04:53:29.069Z,-2.20
2023-02-03T04:54:30.876Z,-2.21
2023-02-03T04:55:32.835Z,-2.22
2023-02-03T04:56:34.576Z,-2.22
2023-02-03T04:57:36.290Z,-2.23
2023-02-03T04:58:38.040Z,-2.25
2023-02-03T04:59:40.009Z,-2.27
2023-02-03T05:00:41.773Z,-2.28
2023-02-03T05:01:43.510Z,-2.30
2023-02-03T05:02:45.173Z,-2.31
2023-02-03T05:03:47.089Z,-2.32
2023-02-03T05:04:48.818Z,-2.33
2023-02-03T05:05:51.084Z,-2.34
2023-02-03T05:06:52.909Z,-2.35
2023-02-03T05:07:54.715Z,-2.36
2023-02-03T05:08:56.551Z,-2.37
2023-02-03T05:09:58.677Z,-2.37
2023-02-03T05:11:02.140Z,-2.36
2023-02-03T05:12:04.286Z,-2.37
2023-02-03T05:13:06.156Z,-2.37
2023-02-03T05:14:08.000Z,-2.37
2023-02-03T05:15:10.213Z,-2.37
2023-02-03T05:16:12.081Z,-2.37
2023-02-03T05:17:13.913Z,-2.37
2023-02-03T05:18:15.679Z,-2.37
2023-02-03T05:19:17.428Z,-2.38
2023-02-03T05:20:19.379Z,-2.40
2023-02-03T05:21:21.539Z,-2.41
2023-02-03T05:22:23.458Z,-2.41
2023-02-03T05:23:25.342Z,-2.42
2023-02-03T05:24:27.171Z,-2.42
2023-02-03T05:25:28.928Z,-2.42
2023-02-03T05:26:30.756Z,-2.42
2023-02-03T05:27:32.708Z,-2.42
2023-02-03T05:28:35.219Z,-2.42
2023-02-03T05:29:36.999Z,-2.43
2023-02-03T05:30:38.960Z,-2.42
2023-02-03T05:31:40.815Z,-2.43
2023-02-03T05:32:42.685Z,-2.42
2023-02-03T05:33:44.601Z,-2.42
2023-02-03T05:34:46.808Z,-2.42
2023-02-03T05:35:48.650Z,-2.43
2023-02-03T05:36:50.930Z,-2.44
2023-02-03T05:37:52.765Z,-2.44
2023-02-03T05:38:54.580Z,-2.44
2023-02-03T05:40:16.397Z,-2.43
2023-02-03T05:41:36.888Z,-2.42
2023-02-03T05:42:38.723Z,-2.42
2023-02-03T05:43:40.514Z,-2.43
2023-02-03T05:44:42.211Z,-2.43
2023-02-03T05:45:44.139Z,-2.44
2023-02-03T05:46:46.123Z,-2.45
2023-02-03T05:47:48.070Z,-2.46
2023-02-03T05:48:50.057Z,-2.47
2023-02-03T05:49:52.156Z,-2.48
2023-02-03T05:50:53.951Z,-2.50
2023-02-03T05:51:56.055Z,-2.51
2023-02-03T05:52:57.839Z,-2.51
2023-02-03T05:53:59.585Z,-2.51
2023-02-03T05:55:01.366Z,-2.51
2023-02-03T05:56:03.196Z,-2.51
2023-02-03T05:57:04.947Z,-2.51
2023-02-03T05:58:06.935Z,-2.50
2023-02-03T05:59:08.885Z,-2.51
2023-02-03T06:00:12.325Z,-2.50
2023-02-03T06:01:14.135Z,-2.48
2023-02-03T06:02:16.002Z,-2.49
2023-02-03T06:03:17.996Z,-2.49
2023-02-03T06:04:19.878Z,-2.49
2023-02-03T06:05:23.642Z,-2.49
2023-02-03T06:06:25.593Z,-2.48
2023-02-03T06:07:27.554Z,-2.46
2023-02-03T06:08:29.365Z,-2.44
2023-02-03T06:09:31.099Z,-2.43
2023-02-03T06:10:33.213Z,-2.43
2023-02-03T06:11:36.423Z,-2.43
2023-02-03T06:12:39.165Z,-2.43
2023-02-03T06:13:40.989Z,-2.44
2023-02-03T06:14:42.846Z,-2.46
2023-02-03T06:15:45.191Z,-2.47
2023-02-03T06:16:47.060Z,-2.48
2023-02-03T06:17:49.324Z,-2.50
2023-02-03T06:18:53.114Z,-2.50
2023-02-03T06:19:54.890Z,-2.51
2023-02-03T06:20:56.889Z,-2.51
2023-02-03T06:21:58.715Z,-2.50
2023-02-03T06:23:01.261Z,-2.50
2023-02-03T06:24:03.799Z,-2.50
2023-02-03T06:25:06.448Z,-2.49
2023-02-03T06:26:08.266Z,-2.49
2023-02-03T06:27:10.069Z,-2.48
2023-02-03T06:28:11.899Z,-2.48
2023-02-03T06:29:13.752Z,-2.49
2023-02-03T06:30:15.698Z,-2.51
2023-02-03T06:31:17.824Z,-2.52
2023-02-03T06:32:19.741Z,-2.55
2023-02-03T06:33:21.657Z,-2.56
2023-02-03T06:34:23.932Z,-2.56
2023-02-03T06:35:25.789Z,-2.57
2023-02-03T06:36:27.476Z,-2.57
2023-02-03T06:37:29.355Z,-2.57
2023-02-03T06:38:31.279Z,-2.57
2023-02-03T06:39:33.157Z,-2.56
2023-02-03T06:40:34.949Z,-2.57
2023-02-03T06:41:36.832Z,-2.57
2023-02-03T06:42:38.921Z,-2.56
2023-02-03T06:43:40.683Z,-2.57
2023-02-03T06:44:42.465Z,-2.57
2023-02-03T06:45:47.399Z,-2.57
2023-02-03T06:46:50.721Z,-2.57
2023-02-03T06:47:52.975Z,-2.56
2023-02-03T06:48:54.775Z,-2.55
2023-02-03T06:49:56.684Z,-2.54
2023-02-03T06:50:58.587Z,-2.52
2023-02-03T06:52:00.410Z,-2.51
2023-02-03T06:53:02.162Z,-2.50
2023-02-03T06:54:04.982Z,-2.50
2023-02-03T06:55:07.626Z,-2.49
2023-02-03T06:56:09.407Z,-2.49
2023-02-03T06:57:11.645Z,-2.49
2023-02-03T06:58:13.804Z,-2.49
2023-02-03T06:59:15.773Z,-2.49
2023-02-03T07:00:19.500Z,-2.49
2023-02-03T07:01:21.644Z,-2.49
2023-02-03T07:02:23.898Z,-2.48
2023-02-03T07:03:25.771Z,-2.47
2023-02-03T07:04:33.221Z,-2.46
2023-02-03T07:05:37.382Z,-2.45
2023-02-03T07:06:39.203Z,-2.43
2023-02-03T07:07:40.955Z,-2.42
2023-02-03T07:08:42.934Z,-2.40
2023-02-03T07:09:44.691Z,-2.38
2023-02-03T07:10:46.518Z,-2.35
2023-02-03T07:11:48.266Z,-2.33
2023-02-03T07:12:51.063Z,-2.32
2023-02-03T07:13:53.511Z,-2.31
2023-02-03T07:14:55.312Z,-2.30
2023-02-03T07:15:57.401Z,-2.29
2023-02-03T07:16:59.224Z,-2.27
2023-02-03T07:18:01.035Z,-2.25
2023-02-03T07:19:04.152Z,-2.23
2023-02-03T07:20:06.312Z,-2.22
2023-02-03T07:21:08.330Z,-2.19
2023-02-03T07:22:12.928Z,-2.18
2023-02-03T07:23:14.895Z,-2.17
2023-02-03T07:24:16.760Z,-2.17
2023-02-03T07:25:18.587Z,-2.17
2023-02-03T07:26:23.223Z,-2.17
2023-02-03T07:27:25.409Z,-2.17
2023-02-03T07:28:27.274Z,-2.18
2023-02-03T07:29:29.058Z,-2.16
2023-02-03T07:30:31.195Z,-2.14
2023-02-03T07:31:33.258Z,-2.11
2023-02-03T07:32:35.719Z,-2.08
2023-02-03T07:33:39.145Z,-2.04
2023-02-03T07:34:41.079Z,-2.03
2023-02-03T07:35:42.798Z,-2.02
2023-02-03T07:36:44.607Z,-2.02
2023-02-03T07:37:47.369Z,-2.03
2023-02-03T07:38:49.077Z,-2.04
2023-02-03T07:39:50.827Z,-2.05
2023-02-03T07:40:56.092Z,-2.05
2023-02-03T07:41:58.520Z,-2.06
2023-02-03T07:43:02.325Z,-2.05
2023-02-03T07:44:04.348Z,-2.04
2023-02-03T07:45:06.473Z,-2.03
2023-02-03T07:46:08.483Z,-2.02
2023-02-03T07:47:12.459Z,-2.01
2023-02-03T07:48:15.019Z,-1.98
2023-02-03T07:49:16.779Z,-1.99
2023-02-03T07:50:18.680Z,-1.95
2023-02-03T07:51:20.567Z,-1.93
2023-02-03T07:52:22.441Z,-1.92
2023-02-03T07:53:26.467Z,-1.93
2023-02-03T07:54:28.276Z,-1.93
2023-02-03T07:55:30.798Z,-1.92
2023-02-03T07:56:33.391Z,-1.91
2023-02-03T07:57:35.334Z,-1.91
2023-02-03T07:58:37.338Z,-1.91
2023-02-03T07:59:39.121Z,-1.89
2023-02-03T08:00:40.918Z,-1.89
2023-02-03T08:01:42.810Z,-1.90
2023-02-03T08:02:45.112Z,-1.90
2023-02-03T08:03:47.000Z,-1.88
2023-02-03T08:04:48.863Z,-1.87
2023-02-03T08:05:52.303Z,-1.88
2023-02-03T08:06:56.566Z,-1.87
2023-02-03T08:07:59.406Z,-1.87
2023-02-03T08:09:01.238Z,-1.86
2023-02-03T08:10:03.774Z,-1.86
2023-02-03T08:11:05.619Z,-1.88
2023-02-03T08:12:07.558Z,-1.88
2023-02-03T08:13:09.437Z,-1.90
2023-02-03T08:14:11.284Z,-1.91
2023-02-03T08:15:14.951Z,-1.91
2023-02-03T08:16:17.116Z,-1.89
2023-02-03T08:17:18.960Z,-1.88
2023-02-03T08:18:20.685Z,-1.85
2023-02-03T08:19:22.594Z,-1.82
2023-02-03T08:20:24.489Z,-1.79
2023-02-03T08:21:26.463Z,-1.77
2023-02-03T08:22:28.534Z,-1.77
2023-02-03T08:23:31.233Z,-1.74
2023-02-03T08:24:33.139Z,-1.73
2023-02-03T08:25:35.019Z,-1.70
2023-02-03T08:26:37.394Z,-1.67
2023-02-03T08:27:40.175Z,-1.64
2023-02-03T08:28:42.022Z,-1.62
2023-02-03T08:29:45.935Z,-1.60
2023-02-03T08:30:47.907Z,-1.59
2023-02-03T08:31:49.878Z,-1.58
2023-02-03T08:32:51.978Z,-1.55
2023-02-03T08:33:55.970Z,-1.51
2023-02-03T08:34:57.816Z,-1.47
2023-02-03T08:36:01.088Z,-1.43
2023-02-03T08:37:03.718Z,-1.40
2023-02-03T08:38:05.603Z,-1.36
2023-02-03T08:39:07.648Z,-1.34
2023-02-03T08:40:10.649Z,-1.31
2023-02-03T08:41:18.335Z,-1.31
2023-02-03T08:42:20.746Z,-1.32
2023-02-03T08:43:22.768Z,-1.34
2023-02-03T08:44:24.827Z,-1.34
2023-02-03T08:45:27.032Z,-1.34
2023-02-03T08:46:28.960Z,-1.32
2023-02-03T08:47:30.804Z,-1.29
2023-02-03T08:48:33.012Z,-1.27
2023-02-03T08:49:35.915Z,-1.24
2023-02-03T08:50:37.758Z,-1.23
2023-02-03T08:51:40.683Z,-1.24
2023-02-03T08:52:42.527Z,-1.22
2023-02-03T08:53:44.361Z,-1.22
2023-02-03T08:54:47.049Z,-1.21
2023-02-03T08:55:48.814Z,-1.19
2023-02-03T08:56:51.643Z,-1.19
2023-02-03T08:57:53.522Z,-1.20
2023-02-03T08:58:56.095Z,-1.20
2023-02-03T08:59:58.116Z,-1.19
2023-02-03T09:01:08.752Z,-1.20
2023-02-03T09:02:15.870Z,-1.20
2023-02-03T09:03:17.601Z,-1.20
2023-02-03T09:04:24.522Z,-1.20
2023-02-03T09:05:26.807Z,-1.18
2023-02-03T09:06:30.161Z,-1.15
2023-02-03T09:07:32.323Z,-1.11
2023-02-03T09:08:36.176Z,-1.11
2023-02-03T09:09:37.937Z,-1.10
2023-02-03T09:10:39.929Z,-1.09
2023-02-03T09:11:42.975Z,-1.10
2023-02-03T09:12:44.804Z,-1.10
2023-02-03T09:13:46.677Z,-1.09
2023-02-03T09:14:48.667Z,-1.06
2023-02-03T09:15:50.891Z,-1.05
2023-02-03T09:16:53.104Z,-1.03
2023-02-03T09:17:56.951Z,-1.01
2023-02-03T09:18:58.945Z,-0.97
2023-02-03T09:20:00.891Z,-0.95
2023-02-03T09:21:07.183Z,-0.94
2023-02-03T09:22:09.470Z,-0.95
2023-02-03T09:23:11.507Z,-0.98
2023-02-03T09:24:13.304Z,-0.98
2023-02-03T09:25:16.321Z,-0.98
2023-02-03T09:26:18.452Z,-0.98
2023-02-03T09:27:20.149Z,-0.98
2023-02-03T09:28:21.961Z,-0.99
2023-02-03T09:29:24.241Z,-0.98
2023-02-03T09:30:26.960Z,-0.98
2023-02-03T09:31:28.955Z,-0.98
2023-02-03T09:32:30.879Z,-0.97
2023-02-03T09:33:33.377Z,-0.98
2023-02-03T09:34:35.187Z,-0.97
2023-02-03T09:35:37.018Z,-0.96
2023-02-03T09:36:39.239Z,-0.93
2023-02-03T09:37:41.830Z,-0.92
2023-02-03T09:38:43.664Z,-0.89
2023-02-03T09:39:45.662Z,-0.88
2023-02-03T09:41:09.306Z,-0.86
2023-02-03T09:42:31.951Z,-0.86
2023-02-03T09:43:55.178Z,-0.86
2023-02-03T09:45:17.934Z,-0.86
2023-02-03T09:46:25.940Z,-0.87
2023-02-03T09:47:33.810Z,-0.87
2023-02-03T09:48:43.910Z,-0.87
2023-02-03T09:49:55.693Z,-0.87
2023-02-03T09:50:57.635Z,-0.85
2023-02-03T09:52:09.332Z,-0.83
2023-02-03T09:53:45.233Z,-0.82
2023-02-03T09:55:34.169Z,-0.75
2023-02-03T09:56:39.483Z,-0.67
2023-02-03T09:57:55.972Z,-0.64
2023-02-03T09:58:58.326Z,-0.62
2023-02-03T10:00:13.939Z,-0.59
2023-02-03T10:01:20.137Z,-0.57
2023-02-03T10:03:04.167Z,-0.55
2023-02-03T10:04:28.121Z,-0.55
2023-02-03T10:05:42.006Z,-0.55
2023-02-03T10:06:47.183Z,-0.56
2023-02-03T10:08:28.519Z,-0.57
2023-02-03T10:09:52.366Z,-0.57
2023-02-03T10:11:11.736Z,-0.55
2023-02-03T10:12:37.402Z,-0.55
2023-02-03T10:14:13.705Z,-0.58
2023-02-03T10:15:27.734Z,-0.59
2023-02-03T10:17:31.533Z,-0.60
2023-02-03T10:18:52.388Z,-0.56
2023-02-03T10:20:02.155Z,-0.55
2023-02-03T10:21:19.445Z,-0.54
2023-02-03T10:22:28.382Z,-0.55
2023-02-03T10:23:35.442Z,-0.57
2023-02-03T10:25:00.271Z,-0.57
2023-02-03T10:26:07.557Z,-0.57
2023-02-03T10:27:18.442Z,-0.57
2023-02-03T10:28:23.886Z,-0.59
2023-02-03T10:29:35.077Z,-0.59
2023-02-03T10:30:45.421Z,-0.60
2023-02-03T10:31:48.044Z,-0.58
2023-02-03T10:33:00.535Z,-0.59
2023-02-03T10:34:12.229Z,-0.60
2023-02-03T10:35:14.492Z,-0.62
2023-02-03T10:36:35.349Z,-0.65
2023-02-03T10:37:49.431Z,-0.66
2023-02-03T10:39:31.024Z,-0.69
2023-02-03T10:40:32.925Z,-0.73
2023-02-03T10:41:35.028Z,-0.75
2023-02-03T10:42:56.389Z,-0.78
2023-02-03T10:44:00.140Z,-0.81
2023-02-03T10:45:04.331Z,-0.83
2023-02-03T10:46:06.303Z,-0.83
2023-02-03T10:47:27.186Z,-0.84
2023-02-03T10:48:29.937Z,-0.83
2023-02-03T10:49:31.837Z,-0.81
2023-02-03T10:50:35.989Z,-0.81
2023-02-03T10:51:50.403Z,-0.80
2023-02-03T10:52:52.453Z,-0.78
2023-02-03T10:53:54.442Z,-0.76
2023-02-03T10:54:56.556Z,-0.75
2023-02-03T10:56:04.665Z,-0.75
2023-02-03T10:57:16.642Z,-0.75
2023-02-03T10:58:27.453Z,-0.77
2023-02-03T10:59:42.154Z,-0.77
2023-02-03T11:00:44.142Z,-0.77
2023-02-03T11:01:49.161Z,-0.76
2023-02-03T11:03:26.151Z,-0.75
2023-02-03T11:04:33.595Z,-0.75
2023-02-03T11:05:35.495Z,-0.78
2023-02-03T11:06:56.241Z,-0.80
2023-02-03T11:07:58.186Z,-0.80
2023-02-03T11:09:00.776Z,-0.82
2023-02-03T11:10:02.669Z,-0.83
2023-02-03T11:11:31.327Z,-0.84
2023-02-03T11:12:33.213Z,-0.86
2023-02-03T11:13:35.420Z,-0.88
2023-02-03T11:14:40.606Z,-0.88
2023-02-03T11:16:17.297Z,-0.88
2023-02-03T11:17:29.871Z,-0.86
2023-02-03T11:18:59.907Z,-0.84
2023-02-03T11:20:16.496Z,-0.83
2023-02-03T11:21:22.648Z,-0.83
2023-02-03T11:22:32.153Z,-0.82
2023-02-03T11:23:34.510Z,-0.84
2023-02-03T11:24:42.986Z,-0.86
2023-02-03T11:25:44.897Z,-0.87
2023-02-03T11:26:59.441Z,-0.90
2023-02-03T11:28:10.743Z,-0.92
2023-02-03T11:29:23.873Z,-0.94
2023-02-03T11:30:31.835Z,-0.96
2023-02-03T11:31:36.555Z,-0.96
2023-02-03T11:32:41.940Z,-0.97
2023-02-03T11:33:48.770Z,-0.98
2023-02-03T11:35:04.428Z,-0.99
2023-02-03T11:36:06.772Z,-1.00
2023-02-03T11:37:38.641Z,-1.00
2023-02-03T11:38:42.407Z,-1.04
2023-02-03T11:39:44.302Z,-1.05
2023-02-03T11:40:46.093Z,-1.06
2023-02-03T11:41:48.955Z,-1.06
2023-02-03T11:42:50.763Z,-1.07
2023-02-03T11:43:55.944Z,-1.05
2023-02-03T11:45:19.351Z,-1.05
2023-02-03T11:46:21.775Z,-1.03
2023-02-03T11:47:24.020Z,-1.02
2023-02-03T11:48:35.701Z,-1.00
2023-02-03T11:50:12.279Z,-0.99
2023-02-03T11:51:40.254Z,-0.98
2023-02-03T11:53:10.217Z,-0.99
2023-02-03T11:54:39.765Z,-1.01
2023-02-03T11:56:03.154Z,-1.01
2023-02-03T11:57:44.939Z,-1.00
2023-02-03T11:59:19.446Z,-1.00
2023-02-03T12:00:41.827Z,-1.00
2023-02-03T12:02:29.440Z,-1.01
2023-02-03T12:04:20.197Z,-1.03
2023-02-03T12:05:41.282Z,-1.06
2023-02-03T12:07:05.009Z,-1.08
2023-02-03T12:08:36.679Z,-1.09
2023-02-03T12:10:00.063Z,-1.10
2023-02-03T12:11:22.461Z,-1.13
2023-02-03T12:12:28.420Z,-1.14
2023-02-03T12:14:08.045Z,-1.14
2023-02-03T12:16:00.208Z,-1.15
2023-02-03T12:17:39.983Z,-1.15
2023-02-03T12:19:11.005Z,-1.14
2023-02-03T12:20:34.694Z,-1.17
2023-02-03T12:21:45.705Z,-1.20
2023-02-03T12:23:12.330Z,-1.21
2023-02-03T12:24:50.139Z,-1.20
2023-02-03T12:26:03.772Z,-1.21
2023-02-03T12:27:37.960Z,-1.22
2023-02-03T12:28:50.308Z,-1.21
2023-02-03T12:30:02.398Z,-1.19
2023-02-03T12:31:10.050Z,-1.20
2023-02-03T12:32:24.648Z,-1.23
2023-02-03T12:33:48.769Z,-1.25
2023-02-03T12:35:13.417Z,-1.29
2023-02-03T12:36:30.035Z,-1.31
2023-02-03T12:37:46.781Z,-1.32
2023-02-03T12:38:54.770Z,-1.33
2023-02-03T12:40:04.811Z,-1.34
2023-02-03T12:41:18.678Z,-1.35
2023-02-03T12:42:31.079Z,-1.33
2023-02-03T12:43:42.685Z,-1.33
2023-02-03T12:44:57.729Z,-1.31
2023-02-03T12:46:07.669Z,-1.31
2023-02-03T12:47:30.557Z,-1.31
2023-02-03T12:48:48.481Z,-1.32
2023-02-03T12:50:05.565Z,-1.32
2023-02-03T12:51:23.875Z,-1.34
2023-02-03T12:52:39.545Z,-1.36
2023-02-03T12:53:50.186Z,-1.37
2023-02-03T12:55:08.232Z,-1.37
2023-02-03T12:56:24.547Z,-1.35
2023-02-03T12:58:01.929Z,-1.35
2023-02-03T12:59:15.960Z,-1.37
2023-02-03T13:00:37.007Z,-1.38
2023-02-03T13:01:54.976Z,-1.37
2023-02-03T13:03:06.278Z,-1.36
2023-02-03T13:04:18.650Z,-1.36
2023-02-03T13:05:36.022Z,-1.37
2023-02-03T13:07:07.246Z,-1.38
2023-02-03T13:08:18.158Z,-1.40
2023-02-03T13:09:48.228Z,-1.40
2023-02-03T13:11:15.402Z,-1.39
2023-02-03T13:12:34.262Z,-1.39
2023-02-03T13:13:44.468Z,-1.38
2023-02-03T13:15:03.871Z,-1.36
2023-02-03T13:16:11.682Z,-1.37
2023-02-03T13:17:18.701Z,-1.38
2023-02-03T13:18:29.616Z,-1.38
2023-02-03T13:19:47.133Z,-1.40
2023-02-03T13:20:48.989Z,-1.40
2023-02-03T13:21:52.972Z,-1.39
2023-02-03T13:22:54.772Z,-1.40
2023-02-03T13:23:56.996Z,-1.39
2023-02-03T13:25:09.497Z,-1.37
2023-02-03T13:26:48.570Z,-1.36
2023-02-03T13:28:07.915Z,-1.35
2023-02-03T13:29:49.013Z,-1.36
2023-02-03T13:31:07.662Z,-1.37
2023-02-03T13:32:24.479Z,-1.39
2023-02-03T13:33:44.639Z,-1.39
2023-02-03T13:35:02.339Z,-1.37
2023-02-03T13:36:33.241Z,-1.36
2023-02-03T13:37:49.736Z,-1.34
2023-02-03T13:38:51.773Z,-1.33
2023-02-03T13:40:05.269Z,-1.31
2023-02-03T13:41:28.631Z,-1.31
2023-02-03T13:42:43.338Z,-1.30
2023-02-03T13:43:51.504Z,-1.31
2023-02-03T13:44:59.594Z,-1.30
2023-02-03T13:46:03.962Z,-1.29
2023-02-03T13:47:14.415Z,-1.27
2023-02-03T13:48:26.881Z,-1.26
2023-02-03T13:49:35.233Z,-1.25
2023-02-03T13:50:39.687Z,-1.23
2023-02-03T13:51:46.541Z,-1.21
2023-02-03T13:53:03.532Z,-1.19
2023-02-03T13:54:14.788Z,-1.16
2023-02-03T13:55:38.723Z,-1.14
2023-02-03T13:56:41.123Z,-1.14
2023-02-03T13:57:43.224Z,-1.16
2023-02-03T13:59:21.329Z,-1.15
2023-02-03T14:01:00.600Z,-1.13
2023-02-03T14:02:24.444Z,-1.10
2023-02-03T14:03:26.373Z,-1.09
2023-02-03T14:04:28.240Z,-1.08
2023-02-03T14:05:52.589Z,-1.06
2023-02-03T14:06:58.044Z,-1.04
2023-02-03T14:08:25.982Z,-1.04
2023-02-03T14:09:30.830Z,-1.02
2023-02-03T14:10:32.702Z,-1.00
2023-02-03T14:11:34.776Z,-0.99
2023-02-03T14:12:40.237Z,-0.98
2023-02-03T14:13:42.035Z,-0.97
2023-02-03T14:14:53.150Z,-0.95
2023-02-03T14:16:15.324Z,-0.95
2023-02-03T14:17:35.555Z,-0.95
2023-02-03T14:18:46.804Z,-0.93
2023-02-03T14:19:51.885Z,-0.91
2023-02-03T14:21:09.792Z,-0.91
2023-02-03T14:22:18.345Z,-0.92
2023-02-03T14:23:28.346Z,-0.92
2023-02-03T14:24:42.213Z,-0.92
2023-02-03T14:26:00.510Z,-0.92
2023-02-03T14:27:06.856Z,-0.91
2023-02-03T14:28:16.541Z,-0.90
2023-02-03T14:29:32.551Z,-0.90
2023-02-03T14:31:06.374Z,-0.89
2023-02-03T14:32:12.776Z,-0.87
2023-02-03T14:33:14.780Z,-0.86
2023-02-03T14:34:17.391Z,-0.84
2023-02-03T14:35:25.530Z,-0.83
2023-02-03T14:36:35.104Z,-0.83
2023-02-03T14:37:37.268Z,-0.82
2023-02-03T14:38:39.414Z,-0.84
2023-02-03T14:40:06.950Z,-0.84
2023-02-03T14:41:09.778Z,-0.85